This is the latest recevied weather packets stored in our database for station/object JE4YKI-13. If no packets are shown the sender has not sent any weather packets the latest 1 day(s).
| Time | Temp. | Humidity | Pressure | Rain* | Wind** | Luminosity | Snow |
|---|---|---|---|---|---|---|---|
| 1778082084 | 16.11° C | 77% | 1016 hPa | 0 mm | - | - | - |
| 1778080883 | 15.56° C | 77% | 1016.3 hPa | 0 mm | - | - | - |
| 1778079082 | 16.11° C | 75% | 1016.4 hPa | 0 mm | - | - | - |
| 1778077281 | 15.56° C | 75% | 1016.7 hPa | 0 mm | - | - | - |
| 1778076680 | 15.56° C | 75% | 1016.8 hPa | 0 mm | - | - | - |
| 1778076080 | 15° C | 75% | 1016.8 hPa | 0 mm | - | - | - |
| 1778075480 | 15° C | 76% | 1016.6 hPa | 0 mm | - | - | - |
| 1778074279 | 15.56° C | 75% | 1016.5 hPa | 0 mm | - | - | - |
| 1778073078 | 15.56° C | 75% | 1016.5 hPa | 0 mm | - | - | - |
| 1778072478 | 15.56° C | 74% | 1016.5 hPa | 0 mm | - | - | - |
| 1778071277 | 15° C | 76% | 1016.6 hPa | 0 mm | - | - | - |
| 1778069476 | 15° C | 77% | 1016.2 hPa | 0 mm | - | - | - |
| 1778067675 | 15° C | 76% | 1015.8 hPa | 0 mm | - | - | - |
| 1778066475 | 15.56° C | 75% | 1015.6 hPa | 0 mm | - | - | - |
| 1778065874 | 15.56° C | 75% | 1015.5 hPa | 0 mm | - | - | - |
| 1778065273 | 15.56° C | 74% | 1015.6 hPa | 0 mm | - | - | - |
| 1778064072 | 16.11° C | 73% | 1015.5 hPa | 0 mm | - | - | - |
| 1778060469 | 18.89° C | 58% | 1015.5 hPa | 0 mm | - | - | - |
| 1778059868 | 19.44° C | 58% | 1015.4 hPa | 0 mm | - | - | - |
| 1778058067 | 20.56° C | 55% | 1015.5 hPa | 0 mm | - | - | - |
| 1778056866 | 21.11° C | 54% | 1015.5 hPa | 0 mm | - | - | - |
| 1778056266 | 21.67° C | 53% | 1015.7 hPa | 0 mm | - | - | - |
| 1778055065 | 21.67° C | 54% | 1015.6 hPa | 0 mm | - | - | - |
| 1778054464 | 21.67° C | 54% | 1015.7 hPa | 0 mm | - | - | - |
| 1778053864 | 21.67° C | 53% | 1015.7 hPa | 0 mm | - | - | - |
* Rain latest hour (hover to see other rain measurements)
** Current wind speed in m/s (hover to see current wind gust speed)